Time;durP1;ratioP1;P1;durP2;ratioP2;P2;SDS_P1;SDS_P2;PMS_P1;PMS_P2;Temp;Humidity;BMP_temperature;BMP_pressure;BME280_temperature;BME280_humidity;BME280_pressure;Samples;Min_cycle;Max_cycle;Signal;HPM_P1;HPM_P2
2022/05/17 00:00:52;;;;;;;1999.90;999.90;;;;;;;15.00;100.00;95380.53;5090376;28;20177;-66
2022/05/17 00:03:18;;;;;;;1999.90;999.90;;;;;;;14.99;100.00;95370.75;5089980;28;20222;-66
2022/05/17 00:05:45;;;;;;;1999.90;999.90;;;;;;;14.92;100.00;95386.66;5090098;28;20254;-69
2022/05/17 00:08:11;;;;;;;1999.90;999.90;;;;;;;14.91;100.00;95385.91;5090001;28;20188;-65
2022/05/17 00:10:37;;;;;;;1999.90;999.90;;;;;;;14.89;100.00;95374.53;5090104;28;20204;-67
2022/05/17 00:13:03;;;;;;;1999.90;999.90;;;;;;;14.87;100.00;95381.69;5090451;28;20228;-65
2022/05/17 00:15:29;;;;;;;1999.90;999.90;;;;;;;14.86;100.00;95375.41;5089637;28;20189;-65
2022/05/17 00:17:54;;;;;;;1999.90;999.90;;;;;;;14.86;100.00;95369.91;5090331;28;20218;-66
2022/05/17 00:20:21;;;;;;;1999.90;999.90;;;;;;;14.82;100.00;95374.72;5090249;28;20185;-65
2022/05/17 00:22:47;;;;;;;1999.90;999.90;;;;;;;14.85;100.00;95370.31;5090242;28;20212;-57
2022/05/17 00:25:15;;;;;;;1999.90;999.90;;;;;;;14.85;100.00;95368.34;5089609;28;20196;-57
2022/05/17 00:27:40;;;;;;;1999.90;999.90;;;;;;;14.88;100.00;95364.75;5090153;28;20213;-68
2022/05/17 00:30:07;;;;;;;1999.90;999.90;;;;;;;14.90;100.00;95367.81;5089546;28;20226;-67
2022/05/17 00:32:33;;;;;;;1999.90;999.90;;;;;;;14.90;100.00;95373.31;5089566;28;20280;-65
2022/05/17 00:34:58;;;;;;;1999.90;999.90;;;;;;;14.85;100.00;95373.84;5089500;28;20199;-65
2022/05/17 00:37:24;;;;;;;1999.90;999.90;;;;;;;14.85;100.00;95365.59;5089957;28;20181;-66
2022/05/17 00:39:49;;;;;;;1999.90;999.90;;;;;;;14.87;100.00;95374.22;5089575;28;20200;-66
2022/05/17 00:42:15;;;;;;;1999.90;999.90;;;;;;;14.91;100.00;95369.41;5089849;28;20288;-66
2022/05/17 00:44:43;;;;;;;1999.90;999.90;;;;;;;14.92;100.00;95364.66;5089006;28;20304;-65
2022/05/17 00:47:18;;;;;;;1999.90;999.90;;;;;;;14.91;100.00;95366.66;5089647;28;20181;-65
2022/05/17 00:49:57;;;;;;;1999.90;999.90;;;;;;;14.87;100.00;95368.72;5072364;28;20279;-66
2022/05/17 00:52:31;;;;;;;1999.90;999.90;;;;;;;14.86;100.00;95358.16;5072517;28;20195;-65
2022/05/17 00:55:06;;;;;;;1999.90;999.90;;;;;;;14.86;100.00;95361.66;5089332;28;20212;-66
2022/05/17 00:57:40;;;;;;;1999.90;999.90;;;;;;;14.88;100.00;95358.47;5089471;28;20180;-65
2022/05/17 01:00:12;;;;;;;1999.90;999.90;;;;;;;14.92;100.00;95356.41;5089192;28;20217;-56
2022/05/17 01:02:41;;;;;;;1999.90;999.90;;;;;;;14.90;100.00;95367.81;5089230;28;20181;-59
2022/05/17 01:05:08;;;;;;;1999.90;999.90;;;;;;;14.96;100.00;95357.88;5088944;28;20239;-57
2022/05/17 01:07:43;;;;;;;1999.90;999.90;;;;;;;14.94;100.00;95356.75;5089680;28;20196;-57
2022/05/17 01:10:11;;;;;;;1999.90;999.90;;;;;;;14.95;100.00;95359.06;5089075;28;20231;-57
2022/05/17 01:12:38;;;;;;;1999.90;999.90;;;;;;;14.95;100.00;95353.56;5088981;28;20283;-57
2022/05/17 01:15:06;;;;;;;1999.90;999.90;;;;;;;14.95;100.00;95353.56;5088995;28;20226;-57
2022/05/17 01:17:35;;;;;;;1999.90;999.90;;;;;;;14.95;100.00;95359.06;5089395;28;20201;-57
2022/05/17 01:20:04;;;;;;;1999.90;999.90;;;;;;;14.93;100.00;95355.97;5089471;28;20185;-63
2022/05/17 01:22:30;;;;;;;1999.90;999.90;;;;;;;14.97;100.00;95361.41;5088963;28;20207;-55
2022/05/17 01:24:55;;;;;;;1999.90;999.90;;;;;;;14.96;100.00;95357.88;5088876;28;20189;-55
2022/05/17 01:27:42;;;;;;;1999.90;999.90;;;;;;;14.93;100.00;95358.72;5088914;28;20185;-57
2022/05/17 01:30:16;;;;;;;1999.90;999.90;;;;;;;14.97;100.00;95356.66;5089502;28;20266;-55
2022/05/17 01:32:41;;;;;;;1999.90;999.90;;;;;;;14.99;100.00;95353.47;5088901;28;20189;-56
2022/05/17 01:35:08;;;;;;;1999.90;999.90;;;;;;;14.99;100.00;95359.75;5088858;28;20193;-55
2022/05/17 01:37:34;;;;;;;1999.90;999.90;;;;;;;14.95;100.00;95355.53;5088918;28;20182;-58
2022/05/17 01:39:59;;;;;;;1999.90;999.90;;;;;;;14.97;100.00;95361.41;5088931;28;20185;-62
2022/05/17 01:42:24;;;;;;;1999.90;999.90;;;;;;;14.95;100.00;95359.06;5072191;28;20258;-63
2022/05/17 01:44:50;;;;;;;1999.90;999.90;;;;;;;14.95;100.00;95355.53;5088709;28;20193;-63
2022/05/17 01:47:15;;;;;;;1999.90;999.90;;;;;;;14.95;100.00;95359.06;5088140;28;20213;-63
2022/05/17 01:49:40;;;;;;;1999.90;999.90;;;;;;;14.93;100.00;95366.97;5072586;28;20271;-62
2022/05/17 01:52:06;;;;;;;1999.90;999.90;;;;;;;14.94;100.00;95367.75;5088812;28;20189;-63
2022/05/17 01:54:32;;;;;;;1999.90;999.90;;;;;;;14.94;100.00;95357.50;5089542;28;20188;-63
2022/05/17 01:56:57;;;;;;;1999.90;999.90;;;;;;;14.93;100.00;95355.97;5092742;28;20190;-62
2022/05/17 01:59:23;;;;;;;1999.90;999.90;;;;;;;14.94;100.00;95354.75;5092066;28;20193;-56
2022/05/17 02:01:48;;;;;;;1999.90;999.90;;;;;;;14.92;100.00;95354.44;5091830;28;20185;-54
2022/05/17 02:04:13;;;;;;;1999.90;999.90;;;;;;;14.94;100.00;95357.50;5092732;28;20197;-57
2022/05/17 02:06:39;;;;;;;1999.90;999.90;;;;;;;14.94;100.00;95354.00;5092256;28;20193;-56
2022/05/17 02:09:05;;;;;;;1999.90;999.90;;;;;;;14.95;100.00;95353.56;5092140;28;20225;-57
2022/05/17 02:11:30;;;;;;;1999.90;999.90;;;;;;;14.95;100.00;95353.56;5091666;28;20209;-56
2022/05/17 02:13:55;;;;;;;1999.90;999.90;;;;;;;14.97;100.00;95356.66;5092139;28;20220;-58
2022/05/17 02:16:21;;;;;;;1999.90;999.90;;;;;;;14.96;100.00;95355.13;5091684;28;20220;-59
2022/05/17 02:18:47;;;;;;;1999.90;999.90;;;;;;;14.98;100.00;95358.22;5091886;28;20200;-58
2022/05/17 02:21:12;;;;;;;1999.90;999.90;;;;;;;15.01;100.00;95356.56;5091726;28;20215;-58
2022/05/17 02:23:38;;;;;;;1999.90;999.90;;;;;;;14.98;100.00;95358.22;5091668;28;20181;-58
2022/05/17 02:26:03;;;;;;;1999.90;999.90;;;;;;;14.98;100.00;95347.22;5092131;28;20185;-59
2022/05/17 02:28:28;;;;;;;1999.90;999.90;;;;;;;14.96;100.00;95349.59;5091418;28;20209;-58
2022/05/17 02:30:54;;;;;;;1999.90;999.90;;;;;;;14.94;100.00;95363.00;5091260;28;20189;-59
2022/05/17 02:33:19;;;;;;;1999.90;999.90;;;;;;;14.94;100.00;95367.75;5091776;28;20185;-58
2022/05/17 02:35:45;;;;;;;1999.90;999.90;;;;;;;14.92;100.00;95376.44;5091415;28;20292;-57
2022/05/17 02:38:11;;;;;;;1999.90;999.90;;;;;;;14.90;100.00;95373.31;5091499;28;20182;-56
2022/05/17 02:40:36;;;;;;;1999.90;999.90;;;;;;;14.90;100.00;95373.31;5091337;28;20208;-57
2022/05/17 02:43:03;;;;;;;1999.90;999.90;;;;;;;14.90;100.00;95378.81;5091467;28;20209;-56
2022/05/17 02:45:29;;;;;;;1999.90;999.90;;;;;;;14.85;100.00;95381.31;5075681;28;20207;-56
2022/05/17 02:47:55;;;;;;;1999.90;999.90;;;;;;;14.84;100.00;95372.31;5091562;28;20173;-56
2022/05/17 02:50:20;;;;;;;1999.90;999.90;;;;;;;14.82;100.00;95371.22;5091295;28;20215;-58
2022/05/17 02:52:46;;;;;;;1999.90;999.90;;;;;;;14.80;100.00;95374.38;5075180;28;20208;-57
2022/05/17 02:55:11;;;;;;;1999.90;999.90;;;;;;;14.81;100.00;95380.63;5091171;28;20226;-58
2022/05/17 02:57:37;;;;;;;1999.90;999.90;;;;;;;14.76;100.00;95379.19;5090935;28;20317;-59
2022/05/17 03:00:07;;;;;;;1999.90;999.90;;;;;;;14.75;100.00;95382.38;5074611;28;20185;-59
2022/05/17 03:02:33;;;;;;;1999.90;999.90;;;;;;;14.82;100.00;95382.97;5090924;28;20189;-58
2022/05/17 03:04:58;;;;;;;1999.90;999.90;;;;;;;14.72;100.00;95389.47;5091203;28;20188;-58
2022/05/17 03:07:23;;;;;;;1999.90;999.90;;;;;;;14.71;100.00;95387.94;5090199;28;20181;-58
2022/05/17 03:09:49;;;;;;;1999.90;999.90;;;;;;;14.68;100.00;95383.31;5090722;28;20209;-69
2022/05/17 03:12:14;;;;;;;1999.90;999.90;;;;;;;14.64;100.00;95388.13;5090944;28;20196;-58
2022/05/17 03:14:39;;;;;;;1999.90;999.90;;;;;;;14.63;100.00;95392.06;5090653;28;20201;-58
2022/05/17 03:17:13;;;;;;;1999.90;999.90;;;;;;;14.63;100.00;95403.06;5090628;28;20314;-58
2022/05/17 03:19:39;;;;;;;1999.90;999.90;;;;;;;14.57;100.00;95393.03;5074069;28;20188;-59
2022/05/17 03:22:04;;;;;;;1999.90;999.90;;;;;;;14.58;100.00;95400.84;5074794;28;20189;-59
2022/05/17 03:24:31;;;;;;;1999.90;999.90;;;;;;;14.58;100.00;95395.34;5091145;28;20218;-58
2022/05/17 03:26:57;;;;;;;1999.90;999.90;;;;;;;14.56;100.00;95397.75;5091015;28;20224;-63
2022/05/17 03:29:22;;;;;;;1999.90;999.90;;;;;;;14.54;100.00;95400.16;5090462;28;20262;-57
2022/05/17 03:31:48;;;;;;;1999.90;999.90;;;;;;;14.51;100.00;95406.50;5091082;28;20193;-69
2022/05/17 03:34:13;;;;;;;1999.90;999.90;;;;;;;14.48;100.00;95412.84;5090189;28;20177;-70
2022/05/17 03:36:38;;;;;;;1999.90;999.90;;;;;;;14.46;100.00;95420.72;5090455;28;20271;-70
2022/05/17 03:39:04;;;;;;;1999.90;999.90;;;;;;;14.46;100.00;95420.72;5090210;28;20243;-70
2022/05/17 03:41:29;;;;;;;1999.90;999.90;;;;;;;14.50;100.00;95418.66;5090946;28;20215;-70
2022/05/17 03:43:54;;;;;;;1999.90;999.90;;;;;;;14.46;100.00;95420.72;5090831;28;20248;-70
2022/05/17 03:46:20;;;;;;;1999.90;999.90;;;;;;;14.43;100.00;95424.34;5090431;28;20227;-66
2022/05/17 03:48:46;;;;;;;1999.90;999.90;;;;;;;14.43;100.00;95421.63;5090076;28;20205;-63
2022/05/17 03:51:13;;;;;;;1999.90;999.90;;;;;;;14.42;100.00;95424.78;5090265;28;20205;-62
2022/05/17 03:53:39;;;;;;;1999.90;999.90;;;;;;;14.44;100.00;95423.16;5090003;28;20186;-64
2022/05/17 03:56:04;;;;;;;1999.90;999.90;;;;;;;14.43;100.00;95421.63;5090416;28;20234;-64
2022/05/17 03:58:30;;;;;;;1999.90;999.90;;;;;;;14.41;100.00;95415.75;5090050;28;20177;-63
2022/05/17 04:00:55;;;;;;;1999.90;999.90;;;;;;;14.41;100.00;95424.00;5089811;28;20193;-63
2022/05/17 04:03:20;;;;;;;1999.90;999.90;;;;;;;14.45;100.00;95424.69;5090481;28;20189;-62
2022/05/17 04:05:46;;;;;;;1999.90;999.90;;;;;;;14.50;100.00;95429.66;5090349;28;20238;-62
2022/05/17 04:08:11;;;;;;;1999.90;999.90;;;;;;;14.46;100.00;95425.47;5090157;28;20185;-56
2022/05/17 04:10:36;;;;;;;1999.90;999.90;;;;;;;14.46;100.00;95434.47;5089890;28;20177;-57
2022/05/17 04:13:05;;;;;;;1999.90;999.90;;;;;;;14.50;100.00;95435.16;5089886;28;20219;-58
2022/05/17 04:15:30;;;;;;;1999.90;999.90;;;;;;;14.50;100.00;95437.91;5072958;28;20181;-56
2022/05/17 04:17:55;;;;;;;1999.90;999.90;;;;;;;14.55;100.00;95439.38;5089411;28;20212;-56
2022/05/17 04:20:21;;;;;;;1999.90;999.90;;;;;;;14.55;100.00;95437.44;5090456;28;20181;-56
2022/05/17 04:22:49;;;;;;;1999.90;999.90;;;;;;;14.53;100.00;95445.31;5089885;28;20208;-65
2022/05/17 04:25:16;;;;;;;1999.90;999.90;;;;;;;14.62;100.00;95440.00;5089678;28;20181;-59
2022/05/17 04:27:43;;;;;;;1999.90;999.90;;;;;;;14.71;100.00;95431.94;5089760;28;20185;-58
2022/05/17 04:30:09;;;;;;;1999.90;999.90;;;;;;;14.87;100.00;95434.72;5072688;28;20205;-58
2022/05/17 04:32:34;;;;;;;1999.90;999.90;;;;;;;15.21;100.00;95437.00;5089304;28;20188;-57
2022/05/17 04:35:00;;;;;;;1999.90;999.90;;;;;;;15.75;100.00;95433.22;5089747;28;20184;-57
2022/05/17 04:37:26;;;;;;;1999.90;999.90;;;;;;;16.42;100.00;95427.78;5089519;28;20183;-58
2022/05/17 04:39:52;;;;;;;1999.90;999.90;;;;;;;16.94;100.00;95439.94;5089525;28;20185;-57
2022/05/17 04:42:17;;;;;;;1999.90;999.90;;;;;;;17.46;100.00;95450.47;5089871;28;20188;-58
2022/05/17 04:44:42;;;;;;;1999.90;999.90;;;;;;;17.60;100.00;95472.06;5089538;28;20181;-58
2022/05/17 04:47:11;;;;;;;1999.90;999.90;;;;;;;17.54;100.00;95498.69;5089807;28;20189;-58
2022/05/17 04:49:37;;;;;;;1999.90;999.90;;;;;;;17.31;100.00;95515.63;5089300;28;20200;-58
2022/05/17 04:52:03;;;;;;;1999.90;999.90;;;;;;;17.09;100.00;95523.81;5088940;28;20192;-57
2022/05/17 04:54:28;;;;;;;1999.90;999.90;;;;;;;16.90;100.00;95543.34;5089890;28;20181;-58
2022/05/17 04:56:54;;;;;;;1999.90;999.90;;;;;;;16.75;100.00;95542.22;5089401;28;20208;-58
2022/05/17 04:59:20;;;;;;;1999.90;999.90;;;;;;;16.72;100.00;95548.59;5073546;28;20181;-58
2022/05/17 05:01:46;;;;;;;1999.90;999.90;;;;;;;16.64;100.00;95547.28;5072394;28;20203;-69
2022/05/17 05:04:11;;;;;;;1999.90;999.90;;;;;;;16.56;100.00;95551.41;5089329;28;20182;-66
2022/05/17 05:06:37;;;;;;;1999.90;999.90;;;;;;;16.60;100.00;95552.13;5089094;28;20253;-68
2022/05/17 05:09:02;;;;;;;1999.90;999.90;;;;;;;16.61;100.00;95564.69;5089114;28;20219;-67
2022/05/17 05:11:28;;;;;;;1999.90;999.90;;;;;;;16.63;100.00;95562.25;5088971;28;20271;-65
2022/05/17 05:13:53;;;;;;;1999.90;999.90;;;;;;;16.67;100.00;95568.47;5089342;28;20189;-63
2022/05/17 05:16:19;;;;;;;1999.90;999.90;;;;;;;16.60;100.00;95561.13;5089101;28;20205;-65
2022/05/17 05:18:44;;;;;;;1999.90;999.90;;;;;;;16.80;100.00;95569.25;5089120;28;20207;-64
2022/05/17 05:21:12;;;;;;;1999.90;999.90;;;;;;;16.80;100.00;95569.25;5088979;28;20322;-72
2022/05/17 05:23:40;;;;;;;1999.90;999.90;;;;;;;16.72;100.00;95576.19;5089226;28;20188;-73
2022/05/17 05:26:06;;;;;;;1999.90;999.90;;;;;;;16.73;100.00;95577.72;5089552;28;20189;-72
2022/05/17 05:28:33;;;;;;;1999.90;999.90;;;;;;;16.79;100.00;95587.78;5071751;28;20220;-73
2022/05/17 05:30:59;;;;;;;1999.90;999.90;;;;;;;16.76;100.00;95583.16;5091223;28;20185;-74
2022/05/17 05:33:24;;;;;;;1999.90;999.90;;;;;;;16.71;100.00;95596.72;5092470;28;20185;-75
2022/05/17 05:35:51;;;;;;;1999.90;999.90;;;;;;;16.71;100.00;95591.19;5092800;28;20185;-62
2022/05/17 05:38:16;;;;;;;1999.90;999.90;;;;;;;16.87;100.00;95593.88;5092842;28;20250;-62
2022/05/17 05:40:42;;;;;;;1999.90;999.90;;;;;;;16.98;100.00;95595.13;5092092;28;20181;-61
2022/05/17 05:43:08;;;;;;;1999.90;999.90;;;;;;;17.03;100.00;95602.06;5076344;28;20185;-63
2022/05/17 05:45:34;;;;;;;1999.90;999.90;;;;;;;17.04;100.00;95611.91;5092122;28;20192;-63
2022/05/17 05:47:59;;;;;;;1999.90;999.90;;;;;;;17.39;100.00;95608.84;5092028;28;20196;-62
2022/05/17 05:50:25;;;;;;;1999.90;999.90;;;;;;;17.30;100.00;95622.50;5091806;28;20209;-64
2022/05/17 05:52:50;;;;;;;1999.90;999.90;;;;;;;17.46;100.00;95624.44;5092062;28;20185;-62
2022/05/17 05:55:19;;;;;;;1999.90;999.90;;;;;;;17.61;100.00;95620.00;5092038;28;20276;-61
2022/05/17 05:57:44;;;;;;;1999.90;999.90;;;;;;;18.08;100.00;95623.59;5092209;28;20185;-59
2022/05/17 06:00:11;;;;;;;1999.90;999.90;;;;;;;18.78;100.00;95638.53;5091952;28;20186;-59
2022/05/17 06:02:37;;;;;;;1999.90;999.90;;;;;;;19.73;100.00;95648.78;5091971;28;20189;-60
2022/05/17 06:05:03;;;;;;;1999.90;999.90;;;;;;;21.32;100.00;95655.50;5091581;28;20279;-59
2022/05/17 06:07:28;;;;;;;1999.90;999.90;;;;;;;22.33;100.00;95688.81;5091814;28;20188;-54
2022/05/17 06:09:53;;;;;;;1999.90;999.90;;;;;;;23.31;100.00;95710.16;5091636;28;20319;-54
2022/05/17 06:12:18;;;;;;;1999.90;999.90;;;;;;;24.28;100.00;95728.34;5092138;28;20196;-59
2022/05/17 06:14:44;;;;;;;1999.90;999.90;;;;;;;24.60;100.00;95746.84;5091643;28;20204;-58
2022/05/17 06:17:09;;;;;;;1999.90;999.90;;;;;;;25.33;100.00;95752.97;5091834;28;20274;-55
2022/05/17 06:19:35;;;;;;;1999.90;999.90;;;;;;;26.18;100.00;95765.34;5091748;28;20221;-56
2022/05/17 06:22:00;;;;;;;1999.90;999.90;;;;;;;26.32;100.00;95775.63;5091070;28;20189;-56
2022/05/17 06:24:27;;;;;;;1999.90;999.90;;;;;;;26.91;100.00;95793.44;5092186;28;20248;-57
2022/05/17 06:26:52;;;;;;;1999.90;999.90;;;;;;;26.25;100.00;95824.47;5091950;28;20187;-56
2022/05/17 06:29:18;;;;;;;1999.90;999.90;;;;;;;25.51;100.00;95842.22;5091123;28;20205;-55
2022/05/17 06:31:43;;;;;;;1999.90;999.90;;;;;;;25.83;100.00;95834.69;5091306;28;20189;-59
2022/05/17 06:34:08;;;;;;;1999.90;999.90;;;;;;;26.98;95.58;95838.59;5091459;28;20192;-52
2022/05/17 06:36:33;;;;;;;1999.90;999.90;;;;;;;26.76;94.04;95848.88;5091021;28;20186;-55
2022/05/17 06:38:59;;;;;;;1999.90;999.90;;;;;;;26.85;89.25;95846.69;5090954;28;20197;-54
2022/05/17 06:41:24;;;;;;;1999.90;999.90;;;;;;;28.19;83.51;95842.00;5090613;28;20177;-55
2022/05/17 06:43:50;;;;;;;1999.90;999.90;;;;;;;27.65;82.73;95851.75;5091170;28;20185;-55
2022/05/17 06:46:15;;;;;;;1999.90;999.90;;;;;;;27.69;81.90;95852.31;5090789;28;20188;-55
2022/05/17 06:48:40;;;;;;;1999.90;999.90;;;;;;;28.16;79.32;95845.06;5091326;28;20193;-57
2022/05/17 06:51:07;;;;;;;1999.90;999.90;;;;;;;28.20;74.87;95837.94;5091157;28;20216;-56
2022/05/17 06:53:33;;;;;;;1999.90;999.90;;;;;;;28.53;73.85;95856.13;5091344;28;20274;-60
2022/05/17 06:55:59;;;;;;;1999.90;999.90;;;;;;;28.99;70.80;95847.97;5090890;28;20215;-60
2022/05/17 06:58:28;;;;;;;1999.90;999.90;;;;;;;29.65;65.79;95854.28;5091696;28;20181;-60
2022/05/17 07:00:54;;;;;;;1999.90;999.90;;;;;;;28.13;70.10;95846.84;5090715;28;20188;-60
2022/05/17 07:03:20;;;;;;;1999.90;999.90;;;;;;;28.05;72.76;95854.22;5091075;28;20181;-59
2022/05/17 07:05:45;;;;;;;1999.90;999.90;;;;;;;27.55;75.00;95858.09;5090974;28;20382;-60
2022/05/17 07:08:10;;;;;;;1999.90;999.90;;;;;;;28.30;71.29;95849.69;5091700;28;20181;-57
2022/05/17 07:13:19;;;;;;;1999.90;999.90;;;;;;;29.21;67.62;95856.41;5074614;28;20189;-61
2022/05/17 07:15:48;;;;;;;1999.90;999.90;;;;;;;30.05;64.29;95853.56;5090719;28;20177;-54
2022/05/17 07:18:17;;;;;;;1999.90;999.90;;;;;;;30.57;58.40;95859.19;5090429;28;20205;-54
2022/05/17 07:20:43;;;;;;;1999.90;999.90;;;;;;;30.74;56.62;95854.22;5090316;28;20196;-53
2022/05/17 07:23:09;;;;;;;1999.90;999.90;;;;;;;31.14;54.39;95861.84;5073808;28;20200;-52
2022/05/17 07:25:36;;;;;;;1999.90;999.90;;;;;;;30.67;54.63;95860.41;5091155;28;20181;-52
2022/05/17 07:28:01;;;;;;;1999.90;999.90;;;;;;;29.81;56.74;95855.47;5090472;28;20276;-47
2022/05/17 07:30:27;;;;;;;1999.90;999.90;;;;;;;29.26;60.33;95856.38;5090738;28;20268;-59
2022/05/17 07:32:53;;;;;;;1999.90;999.90;;;;;;;29.43;60.76;95859.91;5090385;28;20191;-59
2022/05/17 07:35:18;;;;;;;1999.90;999.90;;;;;;;30.35;56.26;95864.97;5090480;28;20177;-59
2022/05/17 07:37:43;;;;;;;1999.90;999.90;;;;;;;31.28;51.96;95863.50;5090191;28;20216;-60
2022/05/17 07:40:12;;;;;;;1999.90;999.90;;;;;;;30.24;55.01;95865.03;5090252;28;20209;-59
2022/05/17 07:42:37;;;;;;;1999.90;999.90;;;;;;;30.06;55.25;95865.59;5090772;28;20192;-58
2022/05/17 07:45:04;;;;;;;1999.90;999.90;;;;;;;29.65;58.39;95871.19;5073370;28;20256;-58
2022/05/17 07:47:29;;;;;;;1999.90;999.90;;;;;;;29.89;55.66;95862.88;5089982;28;20192;-70
2022/05/17 07:49:55;;;;;;;1999.90;999.90;;;;;;;28.88;62.28;95859.22;5089790;28;20200;-59
2022/05/17 07:52:20;;;;;;;1999.90;999.90;;;;;;;27.39;69.46;95856.72;5090491;28;20228;-58
2022/05/17 07:54:45;;;;;;;1999.90;999.90;;;;;;;26.39;74.98;95860.00;5090207;28;20189;-59
2022/05/17 07:57:11;;;;;;;1999.90;999.90;;;;;;;27.69;70.40;95852.31;5089721;28;20248;-59
2022/05/17 07:59:36;;;;;;;1999.90;999.90;;;;;;;29.86;63.67;95854.69;5089888;28;20215;-58
2022/05/17 08:02:02;;;;;;;1999.90;999.90;;;;;;;30.38;55.56;95852.66;5074151;28;20182;-59
2022/05/17 08:04:30;;;;;;;1999.90;999.90;;;;;;;29.38;62.17;95852.25;5090172;28;20185;-68
2022/05/17 08:06:58;;;;;;;1999.90;999.90;;;;;;;29.95;58.15;95849.53;5089645;28;20195;-55
2022/05/17 08:09:24;;;;;;;1999.90;999.90;;;;;;;28.86;63.72;95856.13;5089919;28;20193;-53
2022/05/17 08:11:50;;;;;;;1999.90;999.90;;;;;;;27.04;70.17;95866.69;5089714;28;20271;-55
2022/05/17 08:14:16;;;;;;;1999.90;999.90;;;;;;;27.08;73.27;95851.16;5090363;28;20192;-53
2022/05/17 08:16:42;;;;;;;1999.90;999.90;;;;;;;28.20;69.50;95856.81;5089739;28;20216;-56
2022/05/17 08:19:09;;;;;;;1999.90;999.90;;;;;;;29.60;59.81;95852.22;5089665;28;20213;-54
2022/05/17 08:21:34;;;;;;;1999.90;999.90;;;;;;;28.86;62.85;95853.31;5089614;28;20204;-58
2022/05/17 08:24:00;;;;;;;1999.90;999.90;;;;;;;29.52;60.64;95848.38;5073432;28;20177;-70
2022/05/17 08:29:11;;;;;;;1999.90;999.90;;;;;;;31.19;49.37;95846.88;5074337;28;20196;-58
2022/05/17 08:31:36;;;;;;;1999.90;999.90;;;;;;;31.89;48.65;95846.66;5089856;28;20283;-58
2022/05/17 08:34:02;;;;;;;1999.90;999.90;;;;;;;32.14;46.73;95831.19;5089233;28;20257;-58
2022/05/17 08:36:27;;;;;;;1999.90;999.90;;;;;;;30.53;50.62;95848.19;5089961;28;20195;-58
2022/05/17 08:38:52;;;;;;;1999.90;999.90;;;;;;;28.69;60.29;95850.50;5089688;28;20205;-58
2022/05/17 08:41:39;;;;;;;1999.90;999.90;;;;;;;28.07;64.44;95859.34;5089781;28;20305;-58
2022/05/17 08:44:13;;;;;;;1999.90;999.90;;;;;;;28.95;59.57;95848.19;5072292;28;20248;-57
2022/05/17 08:47:26;;;;;;;1999.90;999.90;;;;;;;30.11;54.77;95847.91;5089569;28;20185;-58
2022/05/17 08:50:02;;;;;;;1999.90;999.90;;;;;;;30.13;52.15;95848.16;5035122;28;20284;-57
2022/05/17 08:52:29;;;;;;;1999.90;999.90;;;;;;;31.37;48.51;95853.91;5052089;28;20189;-57
2022/05/17 08:54:58;;;;;;;1999.90;999.90;;;;;;;31.90;47.59;95853.84;5070456;28;20205;-57
2022/05/17 08:57:46;;;;;;;1999.90;999.90;;;;;;;33.00;43.02;95840.94;5089358;28;20188;-58
2022/05/17 09:00:20;;;;;;;1999.90;999.90;;;;;;;32.04;44.22;95841.34;5089192;28;20258;-56
2022/05/17 09:02:52;;;;;;;1999.90;999.90;;;;;;;32.73;43.70;95841.38;5088892;28;20242;-71
2022/05/17 09:05:34;;;;;;;1999.90;999.90;;;;;;;33.66;41.79;95834.13;5091161;28;20210;-68
2022/05/17 09:08:33;;;;;;;1999.90;999.90;;;;;;;31.56;44.07;95841.38;5075864;28;20192;-69
2022/05/17 09:11:13;;;;;;;1999.90;999.90;;;;;;;29.69;50.75;95840.69;5093084;28;20173;-67
2022/05/17 09:13:57;;;;;;;1999.90;999.90;;;;;;;30.75;48.09;95839.59;5093371;28;20283;-70
2022/05/17 09:16:26;;;;;;;1999.90;999.90;;;;;;;30.83;47.91;95828.47;5076441;28;20292;-57
2022/05/17 09:18:51;;;;;;;1999.90;999.90;;;;;;;31.85;45.47;95837.72;5076720;28;20203;-68
2022/05/17 09:21:35;;;;;;;1999.90;999.90;;;;;;;31.32;45.39;95843.44;5093008;28;20181;-59
2022/05/17 09:24:13;;;;;;;1999.90;999.90;;;;;;;30.63;45.49;95843.00;5092779;28;20185;-59
2022/05/17 09:26:40;;;;;;;1999.90;999.90;;;;;;;30.20;48.13;95844.81;5092178;28;20181;-60
2022/05/17 09:29:33;;;;;;;1999.90;999.90;;;;;;;28.92;52.67;95842.84;5092345;28;20173;-60
2022/05/17 09:32:01;;;;;;;1999.90;999.90;;;;;;;29.62;50.34;95843.25;5076222;28;20221;-60
2022/05/17 09:34:33;;;;;;;1999.90;999.90;;;;;;;30.29;47.39;95839.63;5075632;28;20192;-59
2022/05/17 09:37:04;;;;;;;1999.90;999.90;;;;;;;30.84;45.32;95838.47;5092164;28;20196;-55
2022/05/17 09:39:30;;;;;;;1999.90;999.90;;;;;;;31.08;44.41;95835.69;5092235;28;20301;-58
2022/05/17 09:42:01;;;;;;;1999.90;999.90;;;;;;;31.80;43.12;95835.75;5092172;28;20281;-59
2022/05/17 09:44:28;;;;;;;1999.90;999.90;;;;;;;32.07;39.63;95831.78;5092267;28;20189;-60
2022/05/17 09:47:14;;;;;;;1999.90;999.90;;;;;;;31.94;41.89;95831.69;5092166;28;20212;-59
2022/05/17 09:52:45;;;;;;;1999.90;999.90;;;;;;;32.40;38.96;95828.50;5076710;28;20280;-58
2022/05/17 09:55:27;;;;;;;1999.90;999.90;;;;;;;31.66;40.81;95831.25;5092504;28;20181;-58
2022/05/17 09:58:11;;;;;;;1999.90;999.90;;;;;;;32.47;40.78;95827.91;5091859;28;20184;-70
2022/05/17 10:00:49;;;;;;;1999.90;999.90;;;;;;;32.11;39.39;95818.09;5092526;28;20304;-69
2022/05/17 10:03:15;;;;;;;1999.90;999.90;;;;;;;32.49;38.71;95828.13;5092260;28;20191;-70
2022/05/17 10:05:40;;;;;;;1999.90;999.90;;;;;;;31.61;38.91;95837.72;5091779;28;20188;-71
2022/05/17 10:08:38;;;;;;;1999.90;999.90;;;;;;;29.03;45.85;95837.25;5092222;28;20196;-69
2022/05/17 10:11:13;;;;;;;1999.90;999.90;;;;;;;30.40;45.27;95833.13;5057998;28;20201;-71
2022/05/17 10:13:54;;;;;;;1999.90;999.90;;;;;;;30.43;43.20;95826.44;5092187;28;20177;-52
2022/05/17 10:16:26;;;;;;;1999.90;999.90;;;;;;;30.81;41.46;95828.25;5091961;28;20170;-50
2022/05/17 10:18:58;;;;;;;1999.90;999.90;;;;;;;30.55;39.87;95833.53;5075496;28;20230;-54
2022/05/17 10:21:49;;;;;;;1999.90;999.90;;;;;;;31.09;40.16;95820.28;5092319;28;20220;-54
2022/05/17 10:24:29;;;;;;;1999.90;999.90;;;;;;;29.72;43.07;95819.16;5092158;28;20185;-53
2022/05/17 10:27:05;;;;;;;1999.90;999.90;;;;;;;29.01;45.52;95826.50;5091504;28;20181;-52
2022/05/17 10:29:50;;;;;;;1999.90;999.90;;;;;;;29.54;46.42;95819.72;5091738;28;20189;-52
2022/05/17 10:32:37;;;;;;;1999.90;999.90;;;;;;;28.85;47.76;95818.81;5092175;28;20185;-59
2022/05/17 10:35:18;;;;;;;1999.90;999.90;;;;;;;30.79;45.59;95819.53;5075711;28;20173;-60
2022/05/17 10:38:06;;;;;;;1999.90;999.90;;;;;;;31.49;40.99;95808.06;5074780;28;20189;-60
2022/05/17 10:40:35;;;;;;;1999.90;999.90;;;;;;;31.17;39.94;95814.84;5044182;28;20217;-60
2022/05/17 10:43:03;;;;;;;1999.90;999.90;;;;;;;31.43;38.83;95810.22;5091540;28;20177;-60
2022/05/17 10:45:35;;;;;;;1999.90;999.90;;;;;;;31.20;39.45;95811.69;5075428;28;20264;-61
2022/05/17 10:48:22;;;;;;;1999.90;999.90;;;;;;;31.11;38.78;95809.25;5074931;28;20195;-59
2022/05/17 10:51:33;;;;;;;1999.90;999.90;;;;;;;30.98;38.76;95807.06;5091893;28;20184;-60
2022/05/17 10:54:14;;;;;;;1999.90;999.90;;;;;;;30.84;40.15;95798.97;5059155;28;20284;-72
2022/05/17 10:56:48;;;;;;;1999.90;999.90;;;;;;;30.51;40.12;95799.22;5074236;28;20195;-73
2022/05/17 10:59:31;;;;;;;1999.90;999.90;;;;;;;31.76;39.46;95803.38;5075352;28;20228;-73
2022/05/17 11:02:09;;;;;;;1999.90;999.90;;;;;;;31.67;36.20;95807.34;5091502;28;20208;-74
2022/05/17 11:04:58;;;;;;;1999.90;999.90;;;;;;;32.25;38.02;95799.13;5074742;28;20185;-72